createdAt,value
2023-11-23T00:04:26.102Z,100991.34
2023-11-23T00:09:33.818Z,100986.77
2023-11-23T00:14:41.145Z,100978.86
2023-11-23T00:19:48.958Z,100972.40
2023-11-23T00:24:56.631Z,100957.71
2023-11-23T00:30:04.182Z,100944.02
2023-11-23T00:35:11.960Z,100919.52
2023-11-23T00:40:19.618Z,100912.96
2023-11-23T00:45:27.009Z,100922.04
2023-11-23T00:50:34.673Z,100921.33
2023-11-23T00:55:42.076Z,100923.71
2023-11-23T01:00:49.619Z,100911.25
2023-11-23T01:05:57.413Z,100903.17
2023-11-23T01:11:04.742Z,100885.35
2023-11-23T01:16:13.247Z,100859.54
2023-11-23T01:21:21.224Z,100849.65
2023-11-23T01:26:28.514Z,100850.94
2023-11-23T01:31:36.011Z,100847.37
2023-11-23T01:36:43.324Z,100838.64
2023-11-23T01:41:50.669Z,100831.63
2023-11-23T01:46:59.618Z,100828.01
2023-11-23T01:52:07.640Z,100807.60
2023-11-23T01:57:17.225Z,100806.45
2023-11-23T02:02:24.574Z,100797.71
2023-11-23T02:07:31.809Z,100774.44
2023-11-23T02:12:39.867Z,100770.23
2023-11-23T02:17:47.375Z,100761.29
2023-11-23T02:22:54.770Z,100768.47
2023-11-23T02:28:02.049Z,100766.16
2023-11-23T02:33:12.597Z,100763.35
2023-11-23T02:38:19.999Z,100741.83
2023-11-23T02:43:27.992Z,100722.34
2023-11-23T02:48:35.375Z,100705.96
2023-11-23T02:53:45.404Z,100701.23
2023-11-23T02:58:52.955Z,100699.41
2023-11-23T03:04:00.670Z,100690.86
2023-11-23T03:09:09.789Z,100676.38
2023-11-23T03:14:17.850Z,100656.48
2023-11-23T03:19:25.052Z,100651.64
2023-11-23T03:24:32.844Z,100637.77
2023-11-23T03:29:40.281Z,100618.48
2023-11-23T03:34:47.863Z,100618.15
2023-11-23T03:39:56.552Z,100613.06
2023-11-23T03:45:04.967Z,100614.71
2023-11-23T03:50:12.810Z,100595.66
2023-11-23T03:55:20.210Z,100583.50
2023-11-23T04:00:29.251Z,100575.73
2023-11-23T04:05:38.643Z,100569.04
2023-11-23T04:10:46.068Z,100560.70
2023-11-23T04:15:53.305Z,100557.80
2023-11-23T04:21:00.700Z,100533.41
2023-11-23T04:26:09.277Z,100517.27
2023-11-23T04:31:16.407Z,100515.01
2023-11-23T04:36:24.759Z,100495.18
2023-11-23T04:41:32.006Z,100468.06
2023-11-23T04:46:39.403Z,100461.21
2023-11-23T04:51:46.719Z,100448.61
2023-11-23T04:56:54.393Z,100430.63
2023-11-23T05:02:04.102Z,100421.73
2023-11-23T05:07:11.585Z,100416.09
2023-11-23T05:12:19.251Z,100409.89
2023-11-23T05:17:26.531Z,100407.75
2023-11-23T05:22:34.410Z,100391.38
2023-11-23T05:27:41.798Z,100378.34
2023-11-23T05:32:49.293Z,100373.41
2023-11-23T05:37:56.585Z,100368.10
2023-11-23T05:43:06.175Z,100371.73
2023-11-23T05:48:13.992Z,100367.26
2023-11-23T05:53:21.235Z,100362.75
2023-11-23T05:58:29.210Z,100366.19
2023-11-23T06:03:38.472Z,100360.02
2023-11-23T06:08:45.744Z,100345.18
2023-11-23T06:13:53.023Z,100330.02
2023-11-23T06:19:03.518Z,100317.56
2023-11-23T06:24:12.535Z,100318.81
2023-11-23T06:29:19.992Z,100324.98
2023-11-23T06:34:27.431Z,100321.95
2023-11-23T06:39:38.291Z,100308.45
2023-11-23T06:44:45.689Z,100300.84
2023-11-23T06:49:53.061Z,100298.83
2023-11-23T06:55:00.452Z,100303.94
2023-11-23T07:00:18.365Z,100294.34
2023-11-23T07:05:26.662Z,100275.73
2023-11-23T07:10:35.740Z,100269.65
2023-11-23T07:15:43.241Z,100272.08
2023-11-23T07:20:54.651Z,100268.05
2023-11-23T07:26:02.204Z,100265.55
2023-11-23T07:31:10.675Z,100262.36
2023-11-23T07:36:18.277Z,100263.72
2023-11-23T07:41:25.737Z,100260.87
2023-11-23T07:46:33.425Z,100255.30
2023-11-23T07:51:41.144Z,100245.47
2023-11-23T07:56:49.448Z,100228.35
2023-11-23T08:01:57.933Z,100215.98
2023-11-23T08:07:05.582Z,100213.42
2023-11-23T08:12:13.310Z,100206.48
2023-11-23T08:17:20.664Z,100200.37
2023-11-23T08:22:28.162Z,100186.48
2023-11-23T08:27:36.622Z,100179.86
2023-11-23T08:32:45.361Z,100177.14
2023-11-23T08:37:52.709Z,100176.80
2023-11-23T08:43:00.435Z,100182.23
2023-11-23T08:48:09.380Z,100185.80
2023-11-23T08:53:17.370Z,100177.81
2023-11-23T08:58:25.739Z,100173.89
2023-11-23T09:03:34.143Z,100171.50
2023-11-23T09:08:42.840Z,100158.05
2023-11-23T09:13:50.217Z,100156.83
2023-11-23T09:19:34.363Z,100145.76
2023-11-23T09:24:41.939Z,100124.10
2023-11-23T09:29:49.792Z,100113.48
2023-11-23T09:34:57.550Z,100114.61
2023-11-23T09:40:06.622Z,100107.94
2023-11-23T09:45:19.147Z,100097.48
2023-11-23T09:50:34.027Z,100070.99
2023-11-23T09:55:45.073Z,100056.70
2023-11-23T10:00:53.749Z,100057.31
2023-11-23T10:06:01.355Z,100038.70
2023-11-23T10:11:09.406Z,100027.59
2023-11-23T10:16:17.377Z,100007.12
2023-11-23T10:21:25.346Z,99983.23
2023-11-23T10:26:33.720Z,99957.27
2023-11-23T10:31:41.210Z,99948.83
2023-11-23T10:36:51.117Z,99936.71
2023-11-23T10:41:58.761Z,99916.77
2023-11-23T10:47:09.011Z,99903.78
2023-11-23T10:52:19.677Z,99884.48
2023-11-23T10:57:28.769Z,99869.41
2023-11-23T11:02:36.575Z,99856.86
2023-11-23T11:07:44.185Z,99847.69
2023-11-23T11:12:52.571Z,99841.85
2023-11-23T11:18:08.580Z,99830.27
2023-11-23T11:23:16.117Z,99830.51
2023-11-23T11:28:24.609Z,99815.34
2023-11-23T11:33:33.684Z,99819.82
2023-11-23T11:38:42.153Z,99810.27
2023-11-23T11:43:50.824Z,99800.11
2023-11-23T11:48:59.754Z,99806.69
2023-11-23T11:54:08.357Z,99798.04
2023-11-23T11:59:19.065Z,99778.84
2023-11-23T12:04:26.589Z,99776.24
2023-11-23T12:09:41.251Z,99770.69
2023-11-23T12:14:51.457Z,99758.59
2023-11-23T12:19:59.356Z,99760.49
2023-11-23T12:25:10.539Z,99742.70
2023-11-23T12:30:18.171Z,99740.80
2023-11-23T12:35:27.737Z,99748.17
2023-11-23T12:40:35.322Z,99732.47
2023-11-23T12:45:44.750Z,99724.76
2023-11-23T12:50:52.609Z,99718.45
2023-11-23T12:56:00.578Z,99695.44
2023-11-23T13:01:09.168Z,99689.83
2023-11-23T13:06:17.553Z,99693.43
2023-11-23T13:11:25.148Z,99670.55
2023-11-23T13:16:32.929Z,99666.73
2023-11-23T13:21:40.449Z,99652.88
2023-11-23T13:26:48.307Z,99651.00
2023-11-23T13:31:59.302Z,99633.77
2023-11-23T13:37:07.030Z,99625.61
2023-11-23T13:42:15.906Z,99616.72
2023-11-23T13:47:25.345Z,99610.30
2023-11-23T13:52:33.583Z,99612.16
2023-11-23T13:57:41.297Z,99601.95
2023-11-23T14:02:48.943Z,99601.91
2023-11-23T14:07:57.232Z,99600.66
2023-11-23T14:13:05.289Z,99592.44
2023-11-23T14:18:14.789Z,99582.67
2023-11-23T14:23:22.462Z,99576.66
2023-11-23T14:28:29.992Z,99574.58
2023-11-23T14:33:37.405Z,99553.45
2023-11-23T14:38:44.884Z,99555.02
2023-11-23T14:43:52.904Z,99548.81
2023-11-23T14:49:00.217Z,99541.59
2023-11-23T14:54:10.860Z,99523.36
2023-11-23T14:59:20.147Z,99512.23
2023-11-23T15:04:27.704Z,99502.66
2023-11-23T15:09:35.331Z,99489.34
2023-11-23T15:14:43.491Z,99477.17
2023-11-23T15:19:51.741Z,99466.70
2023-11-23T15:25:08.312Z,99460.17
2023-11-23T15:30:18.225Z,99444.64
2023-11-23T15:35:25.723Z,99444.15
2023-11-23T15:40:33.007Z,99432.68
2023-11-23T15:45:42.651Z,99418.52
2023-11-23T15:50:50.509Z,99400.19
2023-11-23T15:55:57.895Z,99397.39
2023-11-23T16:01:09.309Z,99402.45
2023-11-23T16:06:16.756Z,99391.18
2023-11-23T16:11:24.029Z,99376.91
2023-11-23T16:16:32.217Z,99369.19
2023-11-23T16:21:41.459Z,99359.34
2023-11-23T16:26:48.851Z,99350.44
2023-11-23T16:32:01.746Z,99344.65
2023-11-23T16:37:12.391Z,99330.59
2023-11-23T16:42:20.223Z,99316.73
2023-11-23T16:47:27.580Z,99314.20
2023-11-23T16:52:35.015Z,99304.27
2023-11-23T16:57:44.216Z,99299.98
2023-11-23T17:02:51.560Z,99294.34
2023-11-23T17:07:59.185Z,99282.44
2023-11-23T17:13:07.854Z,99271.04
2023-11-23T17:18:15.723Z,99249.59
2023-11-23T17:23:23.144Z,99224.46
2023-11-23T17:28:30.369Z,99203.09
2023-11-23T17:33:38.326Z,99199.46
2023-11-23T17:38:45.898Z,99177.86
2023-11-23T17:43:53.237Z,99153.23
2023-11-23T17:49:00.704Z,99119.86
2023-11-23T17:54:09.085Z,99132.26
2023-11-23T17:59:26.219Z,99105.85
2023-11-23T18:04:42.037Z,99098.61
2023-11-23T18:09:50.616Z,99068.06
2023-11-23T18:14:58.037Z,99065.13
2023-11-23T18:20:06.724Z,99071.35
2023-11-23T18:25:14.091Z,99049.37
2023-11-23T18:30:22.205Z,99032.70
2023-11-23T18:35:29.608Z,99008.02
2023-11-23T18:40:37.168Z,98994.64
2023-11-23T18:45:44.474Z,98986.92
2023-11-23T18:50:51.883Z,98968.75
2023-11-23T18:55:59.139Z,98962.27
2023-11-23T19:01:06.841Z,98946.09
2023-11-23T19:06:14.511Z,98924.61
2023-11-23T19:11:21.881Z,98933.52
2023-11-23T19:16:29.321Z,98925.39
2023-11-23T19:21:45.275Z,98914.63
2023-11-23T19:26:54.237Z,98894.64
2023-11-23T19:32:08.942Z,98877.77
2023-11-23T19:37:17.730Z,98882.58
2023-11-23T19:42:26.961Z,98859.80
2023-11-23T19:47:35.234Z,98846.18
2023-11-23T19:52:46.391Z,98841.05
2023-11-23T19:57:53.845Z,98822.19
2023-11-23T20:03:01.246Z,98807.46
2023-11-23T20:08:13.814Z,98782.13
2023-11-23T20:13:21.318Z,98768.22
2023-11-23T20:18:29.766Z,98757.10
2023-11-23T20:23:37.139Z,98751.05
2023-11-23T20:28:45.183Z,98725.25
2023-11-23T20:33:52.618Z,98708.64
2023-11-23T20:39:00.195Z,98696.15
2023-11-23T20:44:08.008Z,98684.38
2023-11-23T20:49:15.555Z,98661.30
2023-11-23T20:54:23.847Z,98647.98
2023-11-23T20:59:32.045Z,98638.70
2023-11-23T21:04:41.754Z,98635.08
2023-11-23T21:09:51.518Z,98629.16
2023-11-23T21:14:59.072Z,98602.11
2023-11-23T21:20:07.859Z,98600.30
2023-11-23T21:25:15.879Z,98596.88
2023-11-23T21:30:23.574Z,98576.52
2023-11-23T21:35:33.794Z,98567.94
2023-11-23T21:40:41.671Z,98553.59
2023-11-23T21:45:49.036Z,98550.16
2023-11-23T21:50:56.366Z,98558.20
2023-11-23T21:56:04.134Z,98552.41
2023-11-23T22:01:12.267Z,98532.09
2023-11-23T22:06:19.798Z,98519.36
2023-11-23T22:11:27.404Z,98521.23
2023-11-23T22:16:35.266Z,98492.32
2023-11-23T22:21:45.894Z,98504.28
2023-11-23T22:26:54.236Z,98511.27
2023-11-23T22:32:02.502Z,98521.48
2023-11-23T22:37:10.848Z,98533.15
2023-11-23T22:42:19.504Z,98560.78
2023-11-23T22:47:26.807Z,98587.56
2023-11-23T22:52:34.267Z,98581.57
2023-11-23T22:57:41.768Z,98588.52
2023-11-23T23:02:49.299Z,98591.76
2023-11-23T23:07:58.099Z,98590.16
2023-11-23T23:13:05.715Z,98583.99
2023-11-23T23:18:13.277Z,98578.34
2023-11-23T23:23:20.743Z,98571.51
2023-11-23T23:28:32.107Z,98590.36
2023-11-23T23:33:40.227Z,98590.38
2023-11-23T23:38:47.966Z,98586.61
2023-11-23T23:43:55.261Z,98588.30
2023-11-23T23:49:02.970Z,98580.79
2023-11-23T23:54:10.513Z,98589.66
2023-11-23T23:59:17.864Z,98603.29
